METAR Data
IDs: Format: Raw Decoded Include TAF

Data at: 1640 UTC 26 Apr 2019

KCAO 261555Z AUTO 21023G31KT 10SM CLR 14/06 A3019 RMK AO2 PK WND 22031/1551 SLP188 T01440056 TSNO
KCAO 261455Z AUTO 21020G26KT 10SM CLR 14/06 A3019 RMK AO2 PK WND 21026/1455 SLP188 T01390061 58008 TSNO
KCAO 261355Z AUTO 22018KT 10SM CLR 12/06 A3020 RMK AO2 SLP194 T01170056 TSNO
KCAO 261255Z AUTO 22005KT 10SM CLR 08/05 A3022 RMK AO2 SLP200 T00830050 TSNO
KCAO 261155Z AUTO 24005KT 10SM CLR 07/04 A3022 RMK AO2 SLP199 70007 T00670039 10100 20067 55004 TSNO
KCAO 261055Z AUTO 25006KT 10SM CLR 08/04 A3022 RMK AO2 SLP195 T00780044 TSNO
KCAO 260955Z AUTO 26005KT 10SM FEW120 08/05 A3023 RMK AO2 SLP198 T00830050 TSNO
KCAO 260855Z AUTO 27005KT 10SM FEW120 08/05 A3023 RMK AO2 SLP199 T00830050 58007 TSNO
KCAO 260755Z AUTO 27004KT 10SM OVC110 09/06 A3024 RMK AO2 SLP202 T00890056 TSNO
KCAO 260655Z AUTO 00000KT 10SM CLR 07/05 A3026 RMK AO2 SLP212 T00720050 402060072 TSNO
KCAO 260555Z AUTO 00000KT 10SM CLR 10/05 A3026 RMK AO2 RAE27 SLP210 P0001 60007 T01000050 10189 20089 50011 TSNO
KCAO 260455Z AUTO VRB03KT 7SM RA OVC050 11/04 A3029 RMK AO2 RAB02E12B28 SLP220 P0006 T01110044 TSNO
KCAO 260355Z AUTO 04003KT 10SM BKN065 OVC085 12/03 A3027 RMK AO2 RAE0257 SLP214 P0000 T01220028 TSNO
KCAO 260255Z AUTO 12004KT 10SM -RA SCT065 BKN090 BKN110 12/03 A3022 RMK AO2 RAB41 SLP204 P0000 60000 T01220033 52017 TSNO
KCAO 260155Z AUTO 06008KT 10SM FEW075 SCT120 14/02 A3020 RMK AO2 SLP194 T01390022 TSNO
KCAO 260055Z AUTO 07008KT 10SM CLR 16/02 A3018 RMK AO2 SLP180 T01560017 TSNO
KCAO 252355Z AUTO 04012KT 10SM CLR 19/01 A3016 RMK AO2 SLP177 T01890011 10206 20178 53005 TSNO
KCAO 252255Z AUTO 05014G19KT 10SM CLR 20/02 A3015 RMK AO2 SLP167 T02000017 TSNO
KCAO 252155Z AUTO 03018G25KT 10SM CLR 21/02 A3014 RMK AO2 PK WND 36026/2124 SLP167 T02060022 TSNO
KCAO 252055Z AUTO 03018G25KT 10SM CLR 20/03 A3015 RMK AO2 PK WND 01029/2012 SLP167 T02000028 51003 TSNO
KCAO 251955Z AUTO 02017G25KT 10SM CLR 20/03 A3015 RMK AO2 PK WND 01032/1858 SLP167 T02000033 TSNO
KCAO 251855Z AUTO 02023G34KT 10SM CLR 19/03 A3015 RMK AO2 PK WND 01034/1852 SLP169 T01890033 TSNO
KCAO 251755Z AUTO 01026G35KT 10SM CLR 18/04 A3014 RMK AO2 PK WND 36036/1729 SLP168 T01780039 10183 20106 50009 TSNO
KCAO 251655Z AUTO 36020G27KT 10SM FEW037 17/06 A3015 RMK AO2 PK WND 36038/1556 SLP170 T01670056 TSNO
KCAO 251555Z AUTO 36027G36KT 10SM FEW023 14/06 A3012 RMK AO2 PK WND 36036/1550 SLP160 T01440061 TSNO
KCAO 251455Z AUTO 36023G35KT 10SM OVC018 11/07 A3010 RMK AO2 PK WND 36037/1436 SLP163 T01110067 51044 TSNO
KCAO 251412Z AUTO 35028G36KT 10SM BKN020 12/06 A3008 RMK AO2 PK WND 34037/1356 T01170061 TSNO
KCAO 251355Z AUTO 35029G38KT 10SM CLR 12/06 A3006 RMK AO2 PK WND 35038/1350 SLP142 T01170056 TSNO
KCAO 251255Z AUTO 33019G31KT 10SM CLR 13/02 A3001 RMK AO2 PK WND 32031/1253 SLP119 T01330017 TSNO
KCAO 251155Z AUTO 29010KT 10SM CLR 09/01 A2995 RMK AO2 SLP101 T00890011 10111 20083 53010 TSNO
KCAO 251055Z AUTO 28011KT 10SM CLR 11/02 A2993 RMK AO2 SLP089 T01060017 TSNO
KCAO 250955Z AUTO 27009KT 10SM CLR 08/03 A2992 RMK AO2 SLP090 T00830028 TSNO
KCAO 250855Z AUTO 26010KT 10SM CLR 09/04 A2992 RMK AO2 SLP086 T00940039 58004 TSNO
KCAO 250755Z AUTO 25006KT 10SM CLR 09/04 A2993 RMK AO2 SLP088 T00940039 TSNO
KCAO 250655Z AUTO 25007KT 10SM CLR 09/04 A2993 RMK AO2 SLP094 T00940039 402170017 TSNO
KCAO 250555Z AUTO 26007KT 10SM CLR 10/04 A2993 RMK AO2 SLP094 T01000044 10194 20089 50001 TSNO
KCAO 250455Z AUTO 26007KT 10SM CLR 11/04 A2994 RMK AO2 SLP098 T01060044 TSNO